Florence, Wisconsin
Current Conditions -  °F | °C
As of 10:30 AM on Monday 26 Jan 2015 (Local Time) from KIMT Reporting Station
Light Snow Light Snow  
Wind Chill: -17°   Ceiling: 2600
Heat Index: -11°   Visibility: 1mi
Dew Point: -13°   Wind: 8mph
Humidity: 84%   Direction: 140°SE
Pressure: 29.84"   Gusts: NA
Location:  45.92°N, 88.25°W
Report Text: KIMT 261630Z AUTO 14007KT 1SM -SN BR BKN026 OVC033 M11/M13 A2984 RMK AO2 P0000 T11061128
Loading
Personal Weather Stations






























Interactive Weather Map New forecast layout! Learn more

10-Day Weather Forecast

Advertisements
Track Severe Weather on mobile